sensor_id;sensor_type;location;lat;lon;timestamp;pressure;altitude;pressure_sealevel;temperature;humidity
10097;BME280;5087;42.662;23.466;2023-05-20T00:00:21;95686.34;;;10.33;100.00
10097;BME280;5087;42.662;23.466;2023-05-20T00:02:48;95714.25;;;10.70;100.00
10097;BME280;5087;42.662;23.466;2023-05-20T00:05:15;95699.88;;;10.70;100.00
10097;BME280;5087;42.662;23.466;2023-05-20T00:07:44;95707.34;;;10.64;100.00
10097;BME280;5087;42.662;23.466;2023-05-20T00:10:12;95713.88;;;10.40;100.00
10097;BME280;5087;42.662;23.466;2023-05-20T00:12:39;95719.94;;;10.23;100.00
10097;BME280;5087;42.662;23.466;2023-05-20T00:15:08;95719.75;;;10.20;100.00
10097;BME280;5087;42.662;23.466;2023-05-20T00:17:36;95719.75;;;10.20;100.00
10097;BME280;5087;42.662;23.466;2023-05-20T00:20:04;95707.28;;;10.19;100.00
10097;BME280;5087;42.662;23.466;2023-05-20T00:22:32;95712.41;;;10.20;100.00
10097;BME280;5087;42.662;23.466;2023-05-20T00:25:00;95670.88;;;9.97;100.00
10097;BME280;5087;42.662;23.466;2023-05-20T00:27:27;95694.47;;;10.47;100.00
10097;BME280;5087;42.662;23.466;2023-05-20T00:29:55;95702.91;;;10.45;100.00
10097;BME280;5087;42.662;23.466;2023-05-20T00:32:23;95667.69;;;10.18;100.00
10097;BME280;5087;42.662;23.466;2023-05-20T00:34:57;95689.94;;;10.42;100.00
10097;BME280;5087;42.662;23.466;2023-05-20T00:37:24;95684.72;;;10.32;100.00
10097;BME280;5087;42.662;23.466;2023-05-20T00:39:52;95687.94;;;10.34;100.00
10097;BME280;5087;42.662;23.466;2023-05-20T00:42:21;95688.66;;;10.40;100.00
10097;BME280;5087;42.662;23.466;2023-05-20T00:44:48;95662.81;;;10.28;100.00
10097;BME280;5087;42.662;23.466;2023-05-20T00:47:17;95670.38;;;10.32;100.00
10097;BME280;5087;42.662;23.466;2023-05-20T00:49:45;95667.69;;;10.18;100.00
10097;BME280;5087;42.662;23.466;2023-05-20T00:52:13;95649.06;;;10.02;100.00
10097;BME280;5087;42.662;23.466;2023-05-20T00:54:41;95683.94;;;9.95;100.00
10097;BME280;5087;42.662;23.466;2023-05-20T00:57:08;95684.06;;;9.76;100.00
10097;BME280;5087;42.662;23.466;2023-05-20T00:59:38;95674.53;;;9.78;100.00
10097;BME280;5087;42.662;23.466;2023-05-20T01:02:06;95682.78;;;9.73;100.00
10097;BME280;5087;42.662;23.466;2023-05-20T01:04:34;95694.53;;;9.55;100.00
10097;BME280;5087;42.662;23.466;2023-05-20T01:07:03;95698.44;;;9.48;100.00
10097;BME280;5087;42.662;23.466;2023-05-20T01:09:32;95687.81;;;9.38;100.00
10097;BME280;5087;42.662;23.466;2023-05-20T01:12:04;95696.56;;;9.49;100.00
10097;BME280;5087;42.662;23.466;2023-05-20T01:14:39;95686.06;;;9.84;100.00
10097;BME280;5087;42.662;23.466;2023-05-20T01:17:10;95683.66;;;9.82;100.00
10097;BME280;5087;42.662;23.466;2023-05-20T01:19:43;95667.63;;;9.58;100.00
10097;BME280;5087;42.662;23.466;2023-05-20T01:22:12;95696.75;;;9.53;100.00
10097;BME280;5087;42.662;23.466;2023-05-20T01:24:44;95697.72;;;9.43;100.00
10097;BME280;5087;42.662;23.466;2023-05-20T01:27:13;95693.31;;;9.33;100.00
10097;BME280;5087;42.662;23.466;2023-05-20T01:29:41;95704.25;;;9.14;100.00
10097;BME280;5087;42.662;23.466;2023-05-20T01:32:20;95693.06;;;8.87;100.00
10097;BME280;5087;42.662;23.466;2023-05-20T01:34:49;95698.97;;;8.76;100.00
10097;BME280;5087;42.662;23.466;2023-05-20T01:37:18;95709.41;;;8.82;100.00
10097;BME280;5087;42.662;23.466;2023-05-20T01:39:48;95678.75;;;8.54;100.00
10097;BME280;5087;42.662;23.466;2023-05-20T01:42:18;95690.38;;;8.54;100.00
10097;BME280;5087;42.662;23.466;2023-05-20T01:44:47;95709.16;;;8.65;100.00
10097;BME280;5087;42.662;23.466;2023-05-20T01:47:14;95677.78;;;8.64;100.00
10097;BME280;5087;42.662;23.466;2023-05-20T01:49:42;95701.09;;;8.93;100.00
10097;BME280;5087;42.662;23.466;2023-05-20T01:52:10;95663.31;;;8.54;100.00
10097;BME280;5087;42.662;23.466;2023-05-20T01:54:38;95698.97;;;8.76;100.00
10097;BME280;5087;42.662;23.466;2023-05-20T01:57:06;95707.91;;;8.76;100.00
10097;BME280;5087;42.662;23.466;2023-05-20T01:59:33;95678.22;;;8.85;100.00
10097;BME280;5087;42.662;23.466;2023-05-20T02:02:01;95695.03;;;8.68;100.00
10097;BME280;5087;42.662;23.466;2023-05-20T02:04:28;95693.22;;;8.63;100.00
10097;BME280;5087;42.662;23.466;2023-05-20T02:06:55;95668.34;;;8.61;100.00
10097;BME280;5087;42.662;23.466;2023-05-20T02:09:22;95694.16;;;8.73;100.00
10097;BME280;5087;42.662;23.466;2023-05-20T02:11:51;95681.00;;;8.66;100.00
10097;BME280;5087;42.662;23.466;2023-05-20T02:14:20;95681.72;;;8.71;100.00
10097;BME280;5087;42.662;23.466;2023-05-20T02:16:47;95673.88;;;8.70;100.00
10097;BME280;5087;42.662;23.466;2023-05-20T02:19:14;95684.63;;;8.75;100.00
10097;BME280;5087;42.662;23.466;2023-05-20T02:21:48;95682.44;;;8.91;100.00
10097;BME280;5087;42.662;23.466;2023-05-20T02:24:16;95662.56;;;8.68;100.00
10097;BME280;5087;42.662;23.466;2023-05-20T02:26:45;95681.31;;;8.78;100.00
10097;BME280;5087;42.662;23.466;2023-05-20T02:29:14;95686.34;;;8.85;100.00
10097;BME280;5087;42.662;23.466;2023-05-20T02:31:43;95658.28;;;8.48;100.00
10097;BME280;5087;42.662;23.466;2023-05-20T02:34:10;95668.81;;;8.30;100.00
10097;BME280;5087;42.662;23.466;2023-05-20T02:36:38;95670.56;;;8.40;100.00
10097;BME280;5087;42.662;23.466;2023-05-20T02:39:05;95681.47;;;8.35;100.00
10097;BME280;5087;42.662;23.466;2023-05-20T02:41:33;95672.25;;;8.36;100.00
10097;BME280;5087;42.662;23.466;2023-05-20T02:44:02;95650.84;;;8.20;100.00
10097;BME280;5087;42.662;23.466;2023-05-20T02:46:30;95657.56;;;8.23;100.00
10097;BME280;5087;42.662;23.466;2023-05-20T02:49:00;95679.94;;;8.48;100.00
10097;BME280;5087;42.662;23.466;2023-05-20T02:51:27;95658.38;;;8.43;100.00
10097;BME280;5087;42.662;23.466;2023-05-20T02:53:56;95676.47;;;8.42;100.00
10097;BME280;5087;42.662;23.466;2023-05-20T02:56:26;95672.41;;;8.26;100.00
10097;BME280;5087;42.662;23.466;2023-05-20T02:58:53;95682.34;;;8.11;100.00
10097;BME280;5087;42.662;23.466;2023-05-20T03:01:22;95688.06;;;8.10;100.00
10097;BME280;5087;42.662;23.466;2023-05-20T03:03:50;95679.31;;;7.99;100.00
10097;BME280;5087;42.662;23.466;2023-05-20T03:06:18;95691.34;;;8.06;100.00
10097;BME280;5087;42.662;23.466;2023-05-20T03:08:45;95684.84;;;7.88;100.00
10097;BME280;5087;42.662;23.466;2023-05-20T03:11:14;95671.97;;;7.80;100.00
10097;BME280;5087;42.662;23.466;2023-05-20T03:13:41;95696.25;;;7.85;100.00
10097;BME280;5087;42.662;23.466;2023-05-20T03:16:09;95705.81;;;7.97;100.00
10097;BME280;5087;42.662;23.466;2023-05-20T03:18:37;95699.75;;;8.05;100.00
10097;BME280;5087;42.662;23.466;2023-05-20T03:21:04;95696.75;;;7.87;100.00
10097;BME280;5087;42.662;23.466;2023-05-20T03:23:33;95678.06;;;7.48;100.00
10097;BME280;5087;42.662;23.466;2023-05-20T03:26:01;95722.09;;;7.48;100.00
10097;BME280;5087;42.662;23.466;2023-05-20T03:28:29;95698.56;;;7.29;100.00
10097;BME280;5087;42.662;23.466;2023-05-20T03:30:59;95709.28;;;7.10;100.00
10097;BME280;5087;42.662;23.466;2023-05-20T03:33:28;95705.28;;;7.08;100.00
10097;BME280;5087;42.662;23.466;2023-05-20T03:35:56;95689.09;;;7.03;100.00
10097;BME280;5087;42.662;23.466;2023-05-20T03:38:25;95714.84;;;7.19;100.00
10097;BME280;5087;42.662;23.466;2023-05-20T03:40:54;95707.91;;;7.13;100.00
10097;BME280;5087;42.662;23.466;2023-05-20T03:43:22;95714.28;;;7.22;100.00
10097;BME280;5087;42.662;23.466;2023-05-20T03:45:49;95726.31;;;7.35;100.00
10097;BME280;5087;42.662;23.466;2023-05-20T03:48:17;95709.66;;;7.47;100.00
10097;BME280;5087;42.662;23.466;2023-05-20T03:50:45;95715.50;;;7.59;100.00
10097;BME280;5087;42.662;23.466;2023-05-20T03:53:12;95715.59;;;7.73;100.00
10097;BME280;5087;42.662;23.466;2023-05-20T03:55:41;95718.78;;;7.75;100.00
10097;BME280;5087;42.662;23.466;2023-05-20T03:58:11;95730.59;;;8.04;100.00
10097;BME280;5087;42.662;23.466;2023-05-20T04:00:40;95730.91;;;8.21;100.00
10097;BME280;5087;42.662;23.466;2023-05-20T04:03:07;95719.66;;;8.52;100.00
10097;BME280;5087;42.662;23.466;2023-05-20T04:05:35;95740.38;;;8.76;100.00
10097;BME280;5087;42.662;23.466;2023-05-20T04:08:06;95727.38;;;8.92;100.00
10097;BME280;5087;42.662;23.466;2023-05-20T04:10:40;95727.41;;;9.06;100.00
10097;BME280;5087;42.662;23.466;2023-05-20T04:13:11;95724.91;;;9.10;100.00
10097;BME280;5087;42.662;23.466;2023-05-20T04:15:40;95717.09;;;9.22;100.00
10097;BME280;5087;42.662;23.466;2023-05-20T04:18:11;95724.63;;;9.39;100.00
10097;BME280;5087;42.662;23.466;2023-05-20T04:20:40;95698.66;;;9.38;100.00
10097;BME280;5087;42.662;23.466;2023-05-20T04:23:08;95727.97;;;9.64;100.00
10097;BME280;5087;42.662;23.466;2023-05-20T04:25:36;95731.44;;;9.92;100.00
10097;BME280;5087;42.662;23.466;2023-05-20T04:28:04;95705.25;;;9.88;100.00
10097;BME280;5087;42.662;23.466;2023-05-20T04:30:34;95732.66;;;10.51;100.00
10097;BME280;5087;42.662;23.466;2023-05-20T04:33:01;95734.44;;;10.78;100.00
10097;BME280;5087;42.662;23.466;2023-05-20T04:35:29;95727.38;;;11.31;100.00
10097;BME280;5087;42.662;23.466;2023-05-20T04:38:01;95738.84;;;11.51;100.00
10097;BME280;5087;42.662;23.466;2023-05-20T04:40:28;95713.81;;;11.31;100.00
10097;BME280;5087;42.662;23.466;2023-05-20T04:42:58;95730.09;;;11.63;100.00
10097;BME280;5087;42.662;23.466;2023-05-20T04:45:26;95738.50;;;11.44;100.00
10097;BME280;5087;42.662;23.466;2023-05-20T04:47:55;95720.22;;;11.35;100.00
10097;BME280;5087;42.662;23.466;2023-05-20T04:50:23;95715.69;;;11.62;100.00
10097;BME280;5087;42.662;23.466;2023-05-20T04:52:50;95722.72;;;12.03;100.00
10097;BME280;5087;42.662;23.466;2023-05-20T04:55:17;95701.59;;;12.18;100.00
10097;BME280;5087;42.662;23.466;2023-05-20T04:57:46;95717.00;;;12.66;100.00
10097;BME280;5087;42.662;23.466;2023-05-20T05:00:14;95724.84;;;12.59;100.00
10097;BME280;5087;42.662;23.466;2023-05-20T05:02:43;95716.00;;;12.97;100.00
10097;BME280;5087;42.662;23.466;2023-05-20T05:05:12;95728.59;;;13.28;100.00
10097;BME280;5087;42.662;23.466;2023-05-20T05:07:39;95694.13;;;13.71;100.00
10097;BME280;5087;42.662;23.466;2023-05-20T05:10:07;95704.38;;;14.25;100.00
10097;BME280;5087;42.662;23.466;2023-05-20T05:12:34;95693.09;;;14.48;100.00
10097;BME280;5087;42.662;23.466;2023-05-20T05:15:03;95707.50;;;14.57;100.00
10097;BME280;5087;42.662;23.466;2023-05-20T05:17:34;95691.94;;;14.92;100.00
10097;BME280;5087;42.662;23.466;2023-05-20T05:20:04;95698.84;;;15.10;100.00
10097;BME280;5087;42.662;23.466;2023-05-20T05:22:35;95688.81;;;15.14;100.00
10097;BME280;5087;42.662;23.466;2023-05-20T05:25:05;95685.09;;;15.31;100.00
10097;BME280;5087;42.662;23.466;2023-05-20T05:27:33;95670.03;;;14.79;100.00
10097;BME280;5087;42.662;23.466;2023-05-20T05:30:01;95693.25;;;14.73;100.00
10097;BME280;5087;42.662;23.466;2023-05-20T05:32:29;95675.13;;;14.68;100.00
10097;BME280;5087;42.662;23.466;2023-05-20T05:34:56;95686.44;;;14.79;100.00
10097;BME280;5087;42.662;23.466;2023-05-20T05:37:27;95684.69;;;14.96;100.00
10097;BME280;5087;42.662;23.466;2023-05-20T05:39:56;95678.81;;;15.18;100.00
10097;BME280;5087;42.662;23.466;2023-05-20T05:42:26;95691.59;;;15.39;100.00
10097;BME280;5087;42.662;23.466;2023-05-20T05:44:54;95690.75;;;15.97;100.00
10097;BME280;5087;42.662;23.466;2023-05-20T05:47:22;95695.03;;;14.90;100.00
10097;BME280;5087;42.662;23.466;2023-05-20T05:49:54;95702.53;;;15.27;100.00
10097;BME280;5087;42.662;23.466;2023-05-20T05:52:21;95686.81;;;15.36;100.00
10097;BME280;5087;42.662;23.466;2023-05-20T05:54:48;95697.50;;;15.29;100.00
10097;BME280;5087;42.662;23.466;2023-05-20T05:57:17;95690.59;;;15.81;100.00
10097;BME280;5087;42.662;23.466;2023-05-20T05:59:45;95687.28;;;15.75;100.00
10097;BME280;5087;42.662;23.466;2023-05-20T06:02:13;95679.53;;;15.77;100.00
10097;BME280;5087;42.662;23.466;2023-05-20T06:04:40;95676.25;;;16.78;100.00
10097;BME280;5087;42.662;23.466;2023-05-20T06:07:08;95664.69;;;16.85;100.00
10097;BME280;5087;42.662;23.466;2023-05-20T06:09:35;95671.66;;;16.54;100.00
10097;BME280;5087;42.662;23.466;2023-05-20T06:12:03;95671.34;;;15.90;100.00
10097;BME280;5087;42.662;23.466;2023-05-20T06:14:31;95635.94;;;16.09;100.00
10097;BME280;5087;42.662;23.466;2023-05-20T06:16:58;95650.25;;;16.43;100.00
10097;BME280;5087;42.662;23.466;2023-05-20T06:19:26;95660.75;;;16.98;100.00
10097;BME280;5087;42.662;23.466;2023-05-20T06:21:55;95633.69;;;17.61;100.00
10097;BME280;5087;42.662;23.466;2023-05-20T06:24:22;95657.03;;;17.86;100.00
10097;BME280;5087;42.662;23.466;2023-05-20T06:26:50;95605.03;;;18.49;100.00
10097;BME280;5087;42.662;23.466;2023-05-20T06:29:23;95654.72;;;18.99;100.00
10097;BME280;5087;42.662;23.466;2023-05-20T06:31:51;95649.72;;;18.85;100.00
10097;BME280;5087;42.662;23.466;2023-05-20T06:34:19;95625.69;;;19.02;100.00
10097;BME280;5087;42.662;23.466;2023-05-20T06:36:46;95646.09;;;19.24;100.00
10097;BME280;5087;42.662;23.466;2023-05-20T06:39:13;95640.47;;;18.93;100.00
10097;BME280;5087;42.662;23.466;2023-05-20T06:41:43;95619.34;;;19.21;100.00
10097;BME280;5087;42.662;23.466;2023-05-20T06:44:18;95637.97;;;19.54;100.00
10097;BME280;5087;42.662;23.466;2023-05-20T06:46:58;95613.88;;;19.24;100.00
10097;BME280;5087;42.662;23.466;2023-05-20T06:49:25;95618.69;;;19.81;100.00
10097;BME280;5087;42.662;23.466;2023-05-20T06:51:55;95623.53;;;20.45;100.00
10097;BME280;5087;42.662;23.466;2023-05-20T06:54:23;95608.03;;;20.33;100.00
10097;BME280;5087;42.662;23.466;2023-05-20T06:56:51;95601.81;;;19.83;100.00
10097;BME280;5087;42.662;23.466;2023-05-20T06:59:20;95598.28;;;20.09;100.00
10097;BME280;5087;42.662;23.466;2023-05-20T07:01:47;95615.09;;;20.31;100.00
10097;BME280;5087;42.662;23.466;2023-05-20T07:04:16;95613.94;;;20.05;100.00
10097;BME280;5087;42.662;23.466;2023-05-20T07:06:43;95619.69;;;20.53;100.00
10097;BME280;5087;42.662;23.466;2023-05-20T07:09:12;95593.56;;;20.74;100.00
10097;BME280;5087;42.662;23.466;2023-05-20T07:11:40;95580.47;;;21.05;88.63
10097;BME280;5087;42.662;23.466;2023-05-20T07:14:10;95622.19;;;21.38;77.56
10097;BME280;5087;42.662;23.466;2023-05-20T07:16:37;95594.94;;;20.91;81.99
10097;BME280;5087;42.662;23.466;2023-05-20T07:19:05;95615.31;;;20.49;84.81
10097;BME280;5087;42.662;23.466;2023-05-20T07:21:38;95573.56;;;20.50;86.96
10097;BME280;5087;42.662;23.466;2023-05-20T07:24:31;95608.06;;;21.05;79.31
10097;BME280;5087;42.662;23.466;2023-05-20T07:26:58;95600.78;;;20.86;81.87
10097;BME280;5087;42.662;23.466;2023-05-20T07:29:26;95611.97;;;20.02;88.33
10097;BME280;5087;42.662;23.466;2023-05-20T07:31:54;95594.63;;;20.32;86.69
10097;BME280;5087;42.662;23.466;2023-05-20T07:34:21;95616.03;;;21.10;92.82
10097;BME280;5087;42.662;23.466;2023-05-20T07:36:50;95606.41;;;20.29;97.35
10097;BME280;5087;42.662;23.466;2023-05-20T07:39:18;95584.06;;;19.26;96.64
10097;BME280;5087;42.662;23.466;2023-05-20T07:41:46;95605.59;;;20.28;95.79
10097;BME280;5087;42.662;23.466;2023-05-20T07:44:14;95601.41;;;20.38;91.16
10097;BME280;5087;42.662;23.466;2023-05-20T07:46:47;95562.38;;;20.36;94.20
10097;BME280;5087;42.662;23.466;2023-05-20T07:49:16;95603.72;;;21.04;90.20
10097;BME280;5087;42.662;23.466;2023-05-20T07:51:45;95574.28;;;20.44;85.88
10097;BME280;5087;42.662;23.466;2023-05-20T07:54:15;95612.22;;;20.54;90.62
10097;BME280;5087;42.662;23.466;2023-05-20T07:56:45;95610.00;;;20.67;91.96
10097;BME280;5087;42.662;23.466;2023-05-20T07:59:13;95583.25;;;20.03;92.21
10097;BME280;5087;42.662;23.466;2023-05-20T08:01:46;95605.94;;;20.57;93.60
10097;BME280;5087;42.662;23.466;2023-05-20T08:04:15;95573.53;;;20.47;95.75
10097;BME280;5087;42.662;23.466;2023-05-20T08:06:48;95588.31;;;20.65;90.43
10097;BME280;5087;42.662;23.466;2023-05-20T08:09:24;95583.44;;;20.17;94.33
10097;BME280;5087;42.662;23.466;2023-05-20T08:11:54;95604.72;;;20.51;94.29
10097;BME280;5087;42.662;23.466;2023-05-20T08:14:22;95595.78;;;20.31;96.26
10097;BME280;5087;42.662;23.466;2023-05-20T08:16:52;95587.03;;;19.41;100.00
10097;BME280;5087;42.662;23.466;2023-05-20T08:19:23;95597.69;;;20.57;93.01
10097;BME280;5087;42.662;23.466;2023-05-20T08:21:51;95583.91;;;20.91;89.63
10097;BME280;5087;42.662;23.466;2023-05-20T08:24:19;95560.16;;;20.49;87.69
10097;BME280;5087;42.662;23.466;2023-05-20T08:26:48;95590.38;;;20.07;86.12
10097;BME280;5087;42.662;23.466;2023-05-20T08:29:17;95573.78;;;20.34;95.60
10097;BME280;5087;42.662;23.466;2023-05-20T08:31:44;95586.63;;;20.23;94.64
10097;BME280;5087;42.662;23.466;2023-05-20T08:34:15;95556.53;;;19.80;97.10
10097;BME280;5087;42.662;23.466;2023-05-20T08:36:45;95575.81;;;20.07;97.62
10097;BME280;5087;42.662;23.466;2023-05-20T08:39:15;95574.41;;;20.54;93.89
10097;BME280;5087;42.662;23.466;2023-05-20T08:41:45;95573.72;;;20.00;95.44
10097;BME280;5087;42.662;23.466;2023-05-20T08:44:18;95558.66;;;19.64;98.91
10097;BME280;5087;42.662;23.466;2023-05-20T08:46:50;95596.59;;;20.01;99.50
10097;BME280;5087;42.662;23.466;2023-05-20T08:49:20;95565.38;;;20.58;94.28
10097;BME280;5087;42.662;23.466;2023-05-20T08:51:48;95585.09;;;20.94;93.78
10097;BME280;5087;42.662;23.466;2023-05-20T08:54:16;95528.31;;;20.17;97.49
10097;BME280;5087;42.662;23.466;2023-05-20T08:56:48;95585.06;;;21.35;97.04
10097;BME280;5087;42.662;23.466;2023-05-20T08:59:23;95577.09;;;20.17;98.13
10097;BME280;5087;42.662;23.466;2023-05-20T09:01:50;95583.94;;;20.27;95.99
10097;BME280;5087;42.662;23.466;2023-05-20T09:04:17;95575.16;;;20.51;89.40
10097;BME280;5087;42.662;23.466;2023-05-20T09:06:45;95550.09;;;20.64;88.87
10097;BME280;5087;42.662;23.466;2023-05-20T09:09:14;95563.09;;;21.01;87.31
10097;BME280;5087;42.662;23.466;2023-05-20T09:11:44;95562.88;;;20.79;87.33
10097;BME280;5087;42.662;23.466;2023-05-20T09:14:11;95546.38;;;20.15;82.09
10097;BME280;5087;42.662;23.466;2023-05-20T09:16:41;95529.50;;;20.20;87.51
10097;BME280;5087;42.662;23.466;2023-05-20T09:19:09;95551.06;;;19.84;86.22
10097;BME280;5087;42.662;23.466;2023-05-20T09:21:36;95548.81;;;20.92;84.41
10097;BME280;5087;42.662;23.466;2023-05-20T09:24:05;95545.81;;;20.36;83.42
10097;BME280;5087;42.662;23.466;2023-05-20T09:26:32;95555.00;;;20.81;83.11
10097;BME280;5087;42.662;23.466;2023-05-20T09:29:00;95547.19;;;20.87;83.18
10097;BME280;5087;42.662;23.466;2023-05-20T09:31:29;95540.34;;;21.15;78.44
10097;BME280;5087;42.662;23.466;2023-05-20T09:34:06;95525.78;;;21.70;77.98
10097;BME280;5087;42.662;23.466;2023-05-20T09:36:34;95532.53;;;21.28;79.83
10097;BME280;5087;42.662;23.466;2023-05-20T09:39:02;95534.81;;;21.67;88.32
10097;BME280;5087;42.662;23.466;2023-05-20T09:41:33;95533.34;;;21.28;80.81
10097;BME280;5087;42.662;23.466;2023-05-20T09:44:01;95536.47;;;21.27;82.75
10097;BME280;5087;42.662;23.466;2023-05-20T09:46:28;95518.66;;;20.72;93.59
10097;BME280;5087;42.662;23.466;2023-05-20T09:48:58;95532.25;;;21.40;93.60
10097;BME280;5087;42.662;23.466;2023-05-20T09:51:28;95511.63;;;21.82;82.51
10097;BME280;5087;42.662;23.466;2023-05-20T09:53:57;95521.84;;;21.71;93.31
10097;BME280;5087;42.662;23.466;2023-05-20T09:56:26;95520.66;;;21.72;74.39
10097;BME280;5087;42.662;23.466;2023-05-20T09:58:56;95514.28;;;21.64;79.73
10097;BME280;5087;42.662;23.466;2023-05-20T10:01:27;95497.44;;;20.76;85.30
10097;BME280;5087;42.662;23.466;2023-05-20T10:03:55;95496.25;;;21.26;80.34
10097;BME280;5087;42.662;23.466;2023-05-20T10:06:44;95507.72;;;20.79;78.72
10097;BME280;5087;42.662;23.466;2023-05-20T10:09:23;95489.09;;;21.17;77.32
10097;BME280;5087;42.662;23.466;2023-05-20T10:12:06;95487.78;;;21.04;76.43
10097;BME280;5087;42.662;23.466;2023-05-20T10:14:45;95509.03;;;21.48;77.20
10097;BME280;5087;42.662;23.466;2023-05-20T10:17:20;95464.00;;;21.41;77.60
10097;BME280;5087;42.662;23.466;2023-05-20T10:19:56;95482.13;;;21.38;73.67
10097;BME280;5087;42.662;23.466;2023-05-20T10:22:29;95476.56;;;21.97;78.62
10097;BME280;5087;42.662;23.466;2023-05-20T10:25:03;95479.22;;;21.72;70.91
10097;BME280;5087;42.662;23.466;2023-05-20T10:27:44;95454.44;;;21.24;70.66
10097;BME280;5087;42.662;23.466;2023-05-20T10:30:15;95415.28;;;21.07;71.96
10097;BME280;5087;42.662;23.466;2023-05-20T10:32:50;95474.97;;;21.26;70.17
10097;BME280;5087;42.662;23.466;2023-05-20T10:35:21;95464.34;;;20.80;71.70
10097;BME280;5087;42.662;23.466;2023-05-20T10:37:53;95474.88;;;20.70;70.40
10097;BME280;5087;42.662;23.466;2023-05-20T10:40:24;95443.84;;;20.77;73.57
10097;BME280;5087;42.662;23.466;2023-05-20T10:42:51;95456.88;;;20.80;74.44
10097;BME280;5087;42.662;23.466;2023-05-20T10:45:27;95475.56;;;21.57;71.01
10097;BME280;5087;42.662;23.466;2023-05-20T10:47:55;95441.88;;;21.37;69.05
10097;BME280;5087;42.662;23.466;2023-05-20T10:50:26;95470.25;;;21.30;69.57
10097;BME280;5087;42.662;23.466;2023-05-20T10:53:04;95455.13;;;21.73;69.87
10097;BME280;5087;42.662;23.466;2023-05-20T10:55:35;95456.78;;;21.92;69.67
10097;BME280;5087;42.662;23.466;2023-05-20T10:58:04;95429.13;;;21.85;69.06
10097;BME280;5087;42.662;23.466;2023-05-20T11:00:33;95425.53;;;21.80;69.78
10097;BME280;5087;42.662;23.466;2023-05-20T11:03:01;95420.81;;;21.77;68.97
10097;BME280;5087;42.662;23.466;2023-05-20T11:05:30;95430.09;;;21.40;69.29
10097;BME280;5087;42.662;23.466;2023-05-20T11:08:05;95410.28;;;21.27;72.92
10097;BME280;5087;42.662;23.466;2023-05-20T11:10:34;95440.81;;;20.93;73.16
10097;BME280;5087;42.662;23.466;2023-05-20T11:13:02;95441.34;;;20.65;72.92
10097;BME280;5087;42.662;23.466;2023-05-20T11:15:30;95415.22;;;20.51;70.04
10097;BME280;5087;42.662;23.466;2023-05-20T11:18:00;95419.69;;;20.67;72.17
10097;BME280;5087;42.662;23.466;2023-05-20T11:20:29;95416.56;;;21.24;70.64
10097;BME280;5087;42.662;23.466;2023-05-20T11:23:00;95420.66;;;21.45;65.75
10097;BME280;5087;42.662;23.466;2023-05-20T11:25:29;95406.06;;;21.51;68.82
10097;BME280;5087;42.662;23.466;2023-05-20T11:28:00;95412.09;;;21.05;69.34
10097;BME280;5087;42.662;23.466;2023-05-20T11:30:29;95385.25;;;20.95;67.66
10097;BME280;5087;42.662;23.466;2023-05-20T11:33:00;95423.31;;;21.30;69.43
10097;BME280;5087;42.662;23.466;2023-05-20T11:35:30;95401.41;;;21.63;69.78
10097;BME280;5087;42.662;23.466;2023-05-20T11:38:01;95411.41;;;21.93;68.76
10097;BME280;5087;42.662;23.466;2023-05-20T11:40:31;95361.44;;;21.46;69.29
10097;BME280;5087;42.662;23.466;2023-05-20T11:43:02;95388.81;;;21.69;68.33
10097;BME280;5087;42.662;23.466;2023-05-20T11:45:38;95392.41;;;21.84;68.16
10097;BME280;5087;42.662;23.466;2023-05-20T11:48:06;95382.88;;;21.67;66.50
10097;BME280;5087;42.662;23.466;2023-05-20T11:50:35;95391.59;;;21.73;67.95
10097;BME280;5087;42.662;23.466;2023-05-20T11:53:07;95386.63;;;21.30;66.59
10097;BME280;5087;42.662;23.466;2023-05-20T11:55:44;95390.41;;;21.70;69.64
10097;BME280;5087;42.662;23.466;2023-05-20T11:58:15;95397.28;;;21.35;71.16
10097;BME280;5087;42.662;23.466;2023-05-20T12:00:42;95371.13;;;21.07;68.24
10097;BME280;5087;42.662;23.466;2023-05-20T12:03:09;95381.03;;;21.15;72.83
10097;BME280;5087;42.662;23.466;2023-05-20T12:05:37;95362.34;;;20.91;77.65
10097;BME280;5087;42.662;23.466;2023-05-20T12:08:05;95390.78;;;20.95;76.89
10097;BME280;5087;42.662;23.466;2023-05-20T12:10:32;95345.28;;;20.74;76.00
10097;BME280;5087;42.662;23.466;2023-05-20T12:13:03;95397.75;;;20.81;78.93
10097;BME280;5087;42.662;23.466;2023-05-20T12:15:33;95420.13;;;19.90;90.54
10097;BME280;5087;42.662;23.466;2023-05-20T12:18:01;95398.72;;;18.65;97.08
10097;BME280;5087;42.662;23.466;2023-05-20T12:20:34;95428.25;;;18.02;100.00
10097;BME280;5087;42.662;23.466;2023-05-20T12:23:02;95401.56;;;17.83;100.00
10097;BME280;5087;42.662;23.466;2023-05-20T12:25:32;95442.34;;;18.00;100.00
10097;BME280;5087;42.662;23.466;2023-05-20T12:28:01;95420.94;;;17.90;100.00
10097;BME280;5087;42.662;23.466;2023-05-20T12:30:29;95413.06;;;17.88;100.00
10097;BME280;5087;42.662;23.466;2023-05-20T12:32:56;95449.72;;;18.16;100.00
10097;BME280;5087;42.662;23.466;2023-05-20T12:35:24;95449.00;;;18.19;98.75
10097;BME280;5087;42.662;23.466;2023-05-20T12:37:52;95416.69;;;17.93;100.00
10097;BME280;5087;42.662;23.466;2023-05-20T12:40:20;95451.88;;;18.49;100.00
10097;BME280;5087;42.662;23.466;2023-05-20T12:42:47;95410.91;;;18.41;100.00
10097;BME280;5087;42.662;23.466;2023-05-20T12:45:16;95445.53;;;18.92;99.56
10097;BME280;5087;42.662;23.466;2023-05-20T12:47:43;95437.75;;;18.51;100.00
10097;BME280;5087;42.662;23.466;2023-05-20T12:50:10;95456.59;;;18.95;100.00
10097;BME280;5087;42.662;23.466;2023-05-20T12:52:38;95445.41;;;18.85;98.33
10097;BME280;5087;42.662;23.466;2023-05-20T12:55:05;95440.16;;;18.53;95.13
10097;BME280;5087;42.662;23.466;2023-05-20T12:57:38;95438.47;;;18.25;94.46
10097;BME280;5087;42.662;23.466;2023-05-20T13:00:07;95386.63;;;18.00;100.00
10097;BME280;5087;42.662;23.466;2023-05-20T13:02:36;95405.28;;;18.33;100.00
10097;BME280;5087;42.662;23.466;2023-05-20T13:05:04;95435.78;;;18.05;100.00
10097;BME280;5087;42.662;23.466;2023-05-20T13:07:32;95422.31;;;17.80;100.00